Aeroporto :
LOGIN :

Iscrizione | Disclaimer

   EN    FR    IT 

 










Sommario :    VFR   VFR Marginale   IFR   IFR Intensivo   IFR Molto Intensivo
Visibilità : 
Base nubi : 
>= 8 km
>= 3000ft
5 / 8 km
1000 / 3000 ft
1500m / 5 km
500 / 1000 ft
800 / 1500m
200 / 500 ft
< 800m
< 200 ft
Simboli :   Temporali  Nebbia  Neve Forte  Precipitazioni Forti  Vento > 20 kt
SIGMETs :   Varie  Temporali  Ghiacco  Turbolenza  Onda orograficha  Ceneri Vulcaniche






- Altitudine del aeroporto : 302 ft
- Codice IATA : CGN


EDDK - Cologne Bonn

ULTIMO METAR :
  • 181150Z 14006KT 070V230 CAVOK 32/15 Q1012 NOSIG

METARs OBSOLETI :
  • 181120Z 08004KT 360V150 CAVOK 32/15 Q1013 NOSIG
  • 181050Z 07004KT 030V130 CAVOK 30/18 Q1013 NOSIG
  • 181020Z 10004KT 040V150 CAVOK 30/18 Q1013 NOSIG
  • 180950Z 14006KT 090V170 9999 FEW044TCU 28/18 Q1013 NOSIG
  • 180920Z VRB02KT 9999 VCSH FEW044TCU 28/17 Q1013 NOSIG

TAF TAF EDDK
Valido dal 18 a 12 ore il 19 a 18 ore UTC


181100Z 1812/1918 09005KT CAVOK
BECMG 1812/1814 15008KT
PROB30
TEMPO 1814/1818 20020G45KT 3000 TSRAGR SCT040CB
BECMG 1906/1909 21005KT
BECMG 1910/1913 28007KT
BECMG 1913/1916 34007KT
BECMG 1916/1918 04006KT



MetMap, La meteo Aeronautica in un colpo d'occhio ! - Copyright ORBIFLY Dicembre 2007 - Disclaimer

ORBIFLY MET'MAP TEAM :

Programmazione e sviluppo : Alexandra Zaïnal
Concezione : Baudouin d'Aumeries
Aiuto per la programmazione : Marc-Olivier Méhu
Supporto tecnico e logistico : Manuel Goepfert
Aiuto per la traduzione : Arnaldo La Scala

Contatto : metmap@orbifly.com




FONTI E CREDITI :

   NOAA